sensor_id;sensor_type;location;lat;lon;timestamp;P1;durP1;ratioP1;P2;durP2;ratioP2
22646;SDS011;11490;42.726;23.268;2022-10-16T00:00:34;7.65;;;5.13;;
22646;SDS011;11490;42.726;23.268;2022-10-16T00:03:01;7.22;;;5.57;;
22646;SDS011;11490;42.726;23.268;2022-10-16T00:05:26;9.68;;;6.22;;
22646;SDS011;11490;42.726;23.268;2022-10-16T00:07:52;10.52;;;7.10;;
22646;SDS011;11490;42.726;23.268;2022-10-16T00:10:18;9.45;;;6.30;;
22646;SDS011;11490;42.726;23.268;2022-10-16T00:12:43;12.68;;;8.02;;
22646;SDS011;11490;42.726;23.268;2022-10-16T00:15:09;9.45;;;7.05;;
22646;SDS011;11490;42.726;23.268;2022-10-16T00:17:34;10.20;;;7.13;;
22646;SDS011;11490;42.726;23.268;2022-10-16T00:20:00;12.40;;;8.52;;
22646;SDS011;11490;42.726;23.268;2022-10-16T00:22:25;10.88;;;7.05;;
22646;SDS011;11490;42.726;23.268;2022-10-16T00:24:51;13.15;;;7.50;;
22646;SDS011;11490;42.726;23.268;2022-10-16T00:27:16;10.90;;;8.27;;
22646;SDS011;11490;42.726;23.268;2022-10-16T00:29:42;17.55;;;7.63;;
22646;SDS011;11490;42.726;23.268;2022-10-16T00:32:08;10.60;;;7.30;;
22646;SDS011;11490;42.726;23.268;2022-10-16T00:34:33;9.52;;;6.70;;
22646;SDS011;11490;42.726;23.268;2022-10-16T00:36:59;11.18;;;7.28;;
22646;SDS011;11490;42.726;23.268;2022-10-16T00:39:24;12.07;;;7.82;;
22646;SDS011;11490;42.726;23.268;2022-10-16T00:41:50;12.25;;;7.50;;
22646;SDS011;11490;42.726;23.268;2022-10-16T00:47:08;12.50;;;7.22;;
22646;SDS011;11490;42.726;23.268;2022-10-16T00:49:35;14.57;;;7.38;;
22646;SDS011;11490;42.726;23.268;2022-10-16T00:52:01;12.10;;;6.80;;
22646;SDS011;11490;42.726;23.268;2022-10-16T00:54:28;10.85;;;7.03;;
22646;SDS011;11490;42.726;23.268;2022-10-16T00:56:56;10.15;;;6.22;;
22646;SDS011;11490;42.726;23.268;2022-10-16T00:59:40;10.07;;;7.18;;
22646;SDS011;11490;42.726;23.268;2022-10-16T01:02:08;9.73;;;7.00;;
22646;SDS011;11490;42.726;23.268;2022-10-16T01:04:37;10.52;;;7.57;;
22646;SDS011;11490;42.726;23.268;2022-10-16T01:18:00;11.05;;;7.32;;
22646;SDS011;11490;42.726;23.268;2022-10-16T01:20:32;11.18;;;7.95;;
22646;SDS011;11490;42.726;23.268;2022-10-16T01:28:57;10.15;;;6.70;;
22646;SDS011;11490;42.726;23.268;2022-10-16T01:31:35;12.43;;;6.93;;
22646;SDS011;11490;42.726;23.268;2022-10-16T01:36:45;11.63;;;7.15;;
22646;SDS011;11490;42.726;23.268;2022-10-16T01:39:14;9.88;;;6.60;;
22646;SDS011;11490;42.726;23.268;2022-10-16T01:41:45;9.23;;;6.13;;
22646;SDS011;11490;42.726;23.268;2022-10-16T01:44:28;10.02;;;6.47;;
22646;SDS011;11490;42.726;23.268;2022-10-16T01:46:56;9.40;;;5.75;;
22646;SDS011;11490;42.726;23.268;2022-10-16T01:49:23;10.18;;;6.80;;
22646;SDS011;11490;42.726;23.268;2022-10-16T01:51:52;9.43;;;6.63;;
22646;SDS011;11490;42.726;23.268;2022-10-16T01:54:20;10.57;;;7.03;;
22646;SDS011;11490;42.726;23.268;2022-10-16T01:56:50;7.22;;;5.82;;
22646;SDS011;11490;42.726;23.268;2022-10-16T01:59:18;9.63;;;6.55;;
22646;SDS011;11490;42.726;23.268;2022-10-16T02:01:50;12.25;;;7.05;;
22646;SDS011;11490;42.726;23.268;2022-10-16T02:04:24;10.57;;;7.22;;
22646;SDS011;11490;42.726;23.268;2022-10-16T02:06:56;9.15;;;7.07;;
22646;SDS011;11490;42.726;23.268;2022-10-16T02:09:22;12.60;;;7.78;;
22646;SDS011;11490;42.726;23.268;2022-10-16T02:11:47;9.65;;;6.70;;
22646;SDS011;11490;42.726;23.268;2022-10-16T02:14:15;14.75;;;7.95;;
22646;SDS011;11490;42.726;23.268;2022-10-16T02:16:43;11.63;;;6.47;;
22646;SDS011;11490;42.726;23.268;2022-10-16T02:19:10;9.95;;;6.60;;
22646;SDS011;11490;42.726;23.268;2022-10-16T02:21:53;10.68;;;7.13;;
22646;SDS011;11490;42.726;23.268;2022-10-16T02:25:08;10.10;;;6.25;;
22646;SDS011;11490;42.726;23.268;2022-10-16T02:30:01;19.10;;;7.93;;
22646;SDS011;11490;42.726;23.268;2022-10-16T02:32:33;13.35;;;7.82;;
22646;SDS011;11490;42.726;23.268;2022-10-16T02:35:00;15.05;;;6.38;;
22646;SDS011;11490;42.726;23.268;2022-10-16T02:37:27;14.27;;;6.05;;
22646;SDS011;11490;42.726;23.268;2022-10-16T02:39:53;12.88;;;7.25;;
22646;SDS011;11490;42.726;23.268;2022-10-16T02:42:20;12.85;;;6.65;;
22646;SDS011;11490;42.726;23.268;2022-10-16T02:44:46;13.05;;;6.28;;
22646;SDS011;11490;42.726;23.268;2022-10-16T02:47:11;10.05;;;6.28;;
22646;SDS011;11490;42.726;23.268;2022-10-16T02:49:37;12.13;;;6.68;;
22646;SDS011;11490;42.726;23.268;2022-10-16T02:52:02;9.68;;;6.47;;
22646;SDS011;11490;42.726;23.268;2022-10-16T02:54:28;10.68;;;7.10;;
22646;SDS011;11490;42.726;23.268;2022-10-16T02:56:53;13.60;;;6.22;;
22646;SDS011;11490;42.726;23.268;2022-10-16T02:59:19;10.05;;;7.20;;
22646;SDS011;11490;42.726;23.268;2022-10-16T03:01:44;14.13;;;7.18;;
22646;SDS011;11490;42.726;23.268;2022-10-16T03:04:10;7.97;;;6.03;;
22646;SDS011;11490;42.726;23.268;2022-10-16T03:06:35;8.90;;;5.72;;
22646;SDS011;11490;42.726;23.268;2022-10-16T03:09:00;10.70;;;6.93;;
22646;SDS011;11490;42.726;23.268;2022-10-16T03:11:26;6.90;;;5.35;;
22646;SDS011;11490;42.726;23.268;2022-10-16T03:13:51;9.50;;;5.78;;
22646;SDS011;11490;42.726;23.268;2022-10-16T03:16:17;10.05;;;6.93;;
22646;SDS011;11490;42.726;23.268;2022-10-16T03:18:42;9.15;;;6.68;;
22646;SDS011;11490;42.726;23.268;2022-10-16T03:21:07;10.05;;;6.15;;
22646;SDS011;11490;42.726;23.268;2022-10-16T03:23:33;7.78;;;5.30;;
22646;SDS011;11490;42.726;23.268;2022-10-16T03:25:58;9.18;;;6.32;;
22646;SDS011;11490;42.726;23.268;2022-10-16T03:28:24;8.15;;;6.50;;
22646;SDS011;11490;42.726;23.268;2022-10-16T03:30:49;7.95;;;6.00;;
22646;SDS011;11490;42.726;23.268;2022-10-16T03:33:15;10.82;;;6.28;;
22646;SDS011;11490;42.726;23.268;2022-10-16T03:35:40;13.20;;;6.38;;
22646;SDS011;11490;42.726;23.268;2022-10-16T03:38:05;7.45;;;5.65;;
22646;SDS011;11490;42.726;23.268;2022-10-16T03:40:31;9.48;;;6.15;;
22646;SDS011;11490;42.726;23.268;2022-10-16T03:42:59;9.23;;;6.75;;
22646;SDS011;11490;42.726;23.268;2022-10-16T03:45:24;7.90;;;6.13;;
22646;SDS011;11490;42.726;23.268;2022-10-16T03:47:51;7.05;;;5.63;;
22646;SDS011;11490;42.726;23.268;2022-10-16T03:50:16;8.15;;;5.68;;
22646;SDS011;11490;42.726;23.268;2022-10-16T03:52:41;8.40;;;6.80;;
22646;SDS011;11490;42.726;23.268;2022-10-16T03:55:07;8.27;;;5.82;;
22646;SDS011;11490;42.726;23.268;2022-10-16T03:57:32;9.95;;;6.22;;
22646;SDS011;11490;42.726;23.268;2022-10-16T03:59:58;10.77;;;6.20;;
22646;SDS011;11490;42.726;23.268;2022-10-16T04:02:24;7.15;;;5.75;;
22646;SDS011;11490;42.726;23.268;2022-10-16T04:04:49;9.43;;;7.15;;
22646;SDS011;11490;42.726;23.268;2022-10-16T04:07:14;9.88;;;5.18;;
22646;SDS011;11490;42.726;23.268;2022-10-16T04:09:40;9.93;;;5.53;;
22646;SDS011;11490;42.726;23.268;2022-10-16T04:12:05;6.45;;;5.53;;
22646;SDS011;11490;42.726;23.268;2022-10-16T04:14:31;10.40;;;5.85;;
22646;SDS011;11490;42.726;23.268;2022-10-16T04:16:56;11.50;;;5.38;;
22646;SDS011;11490;42.726;23.268;2022-10-16T04:19:21;18.40;;;6.63;;
22646;SDS011;11490;42.726;23.268;2022-10-16T04:21:47;10.85;;;6.47;;
22646;SDS011;11490;42.726;23.268;2022-10-16T04:24:12;11.70;;;7.43;;
22646;SDS011;11490;42.726;23.268;2022-10-16T04:26:38;9.45;;;6.63;;
22646;SDS011;11490;42.726;23.268;2022-10-16T04:29:03;8.73;;;6.20;;
22646;SDS011;11490;42.726;23.268;2022-10-16T04:31:29;13.57;;;6.70;;
22646;SDS011;11490;42.726;23.268;2022-10-16T04:33:54;8.98;;;5.80;;
22646;SDS011;11490;42.726;23.268;2022-10-16T04:36:20;11.35;;;6.15;;
22646;SDS011;11490;42.726;23.268;2022-10-16T04:38:45;10.07;;;7.13;;
22646;SDS011;11490;42.726;23.268;2022-10-16T04:41:10;15.30;;;7.30;;
22646;SDS011;11490;42.726;23.268;2022-10-16T04:43:36;10.80;;;6.63;;
22646;SDS011;11490;42.726;23.268;2022-10-16T04:46:01;10.57;;;5.63;;
22646;SDS011;11490;42.726;23.268;2022-10-16T04:48:29;10.88;;;6.82;;
22646;SDS011;11490;42.726;23.268;2022-10-16T04:50:55;10.00;;;7.50;;
22646;SDS011;11490;42.726;23.268;2022-10-16T04:53:20;10.73;;;6.57;;
22646;SDS011;11490;42.726;23.268;2022-10-16T04:55:45;10.02;;;6.90;;
22646;SDS011;11490;42.726;23.268;2022-10-16T04:58:11;12.35;;;6.32;;
22646;SDS011;11490;42.726;23.268;2022-10-16T05:00:36;7.88;;;6.20;;
22646;SDS011;11490;42.726;23.268;2022-10-16T05:03:03;12.68;;;7.10;;
22646;SDS011;11490;42.726;23.268;2022-10-16T05:05:32;10.10;;;7.30;;
22646;SDS011;11490;42.726;23.268;2022-10-16T05:07:58;12.45;;;7.55;;
22646;SDS011;11490;42.726;23.268;2022-10-16T05:10:23;10.10;;;6.43;;
22646;SDS011;11490;42.726;23.268;2022-10-16T05:12:48;8.70;;;6.78;;
22646;SDS011;11490;42.726;23.268;2022-10-16T05:15:14;10.73;;;7.57;;
22646;SDS011;11490;42.726;23.268;2022-10-16T05:17:40;12.82;;;7.32;;
22646;SDS011;11490;42.726;23.268;2022-10-16T05:20:05;13.27;;;8.98;;
22646;SDS011;11490;42.726;23.268;2022-10-16T05:22:31;17.23;;;8.82;;
22646;SDS011;11490;42.726;23.268;2022-10-16T05:24:57;16.52;;;9.20;;
22646;SDS011;11490;42.726;23.268;2022-10-16T05:27:22;14.68;;;10.52;;
22646;SDS011;11490;42.726;23.268;2022-10-16T05:29:48;16.20;;;10.93;;
22646;SDS011;11490;42.726;23.268;2022-10-16T05:32:17;18.55;;;10.95;;
22646;SDS011;11490;42.726;23.268;2022-10-16T05:34:43;15.90;;;11.23;;
22646;SDS011;11490;42.726;23.268;2022-10-16T05:37:09;16.80;;;11.65;;
22646;SDS011;11490;42.726;23.268;2022-10-16T05:39:36;17.52;;;11.63;;
22646;SDS011;11490;42.726;23.268;2022-10-16T05:42:02;17.60;;;11.38;;
22646;SDS011;11490;42.726;23.268;2022-10-16T05:44:28;16.30;;;10.65;;
22646;SDS011;11490;42.726;23.268;2022-10-16T05:46:54;17.95;;;10.82;;
22646;SDS011;11490;42.726;23.268;2022-10-16T05:49:19;17.55;;;9.77;;
22646;SDS011;11490;42.726;23.268;2022-10-16T05:51:45;14.60;;;10.50;;
22646;SDS011;11490;42.726;23.268;2022-10-16T05:54:10;22.42;;;9.18;;
22646;SDS011;11490;42.726;23.268;2022-10-16T05:56:36;10.45;;;7.50;;
22646;SDS011;11490;42.726;23.268;2022-10-16T05:59:02;15.45;;;9.35;;
22646;SDS011;11490;42.726;23.268;2022-10-16T06:01:29;19.13;;;9.15;;
22646;SDS011;11490;42.726;23.268;2022-10-16T06:03:55;23.38;;;7.18;;
22646;SDS011;11490;42.726;23.268;2022-10-16T06:06:22;7.60;;;6.78;;
22646;SDS011;11490;42.726;23.268;2022-10-16T06:08:50;11.95;;;7.13;;
22646;SDS011;11490;42.726;23.268;2022-10-16T06:11:18;12.70;;;7.50;;
22646;SDS011;11490;42.726;23.268;2022-10-16T06:13:51;12.10;;;6.78;;
22646;SDS011;11490;42.726;23.268;2022-10-16T06:16:18;11.95;;;7.28;;
22646;SDS011;11490;42.726;23.268;2022-10-16T06:18:44;11.57;;;8.43;;
22646;SDS011;11490;42.726;23.268;2022-10-16T06:21:10;9.98;;;6.53;;
22646;SDS011;11490;42.726;23.268;2022-10-16T06:23:41;11.20;;;6.93;;
22646;SDS011;11490;42.726;23.268;2022-10-16T06:26:10;12.77;;;7.13;;
22646;SDS011;11490;42.726;23.268;2022-10-16T06:28:38;8.23;;;6.00;;
22646;SDS011;11490;42.726;23.268;2022-10-16T06:31:05;8.73;;;6.03;;
22646;SDS011;11490;42.726;23.268;2022-10-16T06:33:32;7.03;;;5.25;;
22646;SDS011;11490;42.726;23.268;2022-10-16T06:36:04;8.98;;;5.20;;
22646;SDS011;11490;42.726;23.268;2022-10-16T06:38:33;9.13;;;4.40;;
22646;SDS011;11490;42.726;23.268;2022-10-16T06:40:59;6.15;;;4.70;;
22646;SDS011;11490;42.726;23.268;2022-10-16T06:43:25;7.35;;;4.85;;
22646;SDS011;11490;42.726;23.268;2022-10-16T06:45:52;5.90;;;4.28;;
22646;SDS011;11490;42.726;23.268;2022-10-16T06:48:21;6.93;;;5.22;;
22646;SDS011;11490;42.726;23.268;2022-10-16T06:53:22;7.85;;;5.57;;
22646;SDS011;11490;42.726;23.268;2022-10-16T06:55:48;10.38;;;6.18;;
22646;SDS011;11490;42.726;23.268;2022-10-16T06:58:14;6.25;;;5.03;;
22646;SDS011;11490;42.726;23.268;2022-10-16T07:00:39;8.98;;;6.18;;
22646;SDS011;11490;42.726;23.268;2022-10-16T07:03:04;9.60;;;6.60;;
22646;SDS011;11490;42.726;23.268;2022-10-16T07:05:30;10.23;;;6.10;;
22646;SDS011;11490;42.726;23.268;2022-10-16T07:07:55;9.57;;;6.10;;
22646;SDS011;11490;42.726;23.268;2022-10-16T07:10:20;7.03;;;5.13;;
22646;SDS011;11490;42.726;23.268;2022-10-16T07:12:49;10.15;;;5.60;;
22646;SDS011;11490;42.726;23.268;2022-10-16T07:15:14;7.00;;;5.35;;
22646;SDS011;11490;42.726;23.268;2022-10-16T07:17:39;8.57;;;5.53;;
22646;SDS011;11490;42.726;23.268;2022-10-16T07:20:05;8.75;;;5.80;;
22646;SDS011;11490;42.726;23.268;2022-10-16T07:22:31;11.60;;;6.18;;
22646;SDS011;11490;42.726;23.268;2022-10-16T07:24:56;9.25;;;5.68;;
22646;SDS011;11490;42.726;23.268;2022-10-16T07:27:22;9.00;;;6.20;;
22646;SDS011;11490;42.726;23.268;2022-10-16T07:29:52;7.82;;;5.38;;
22646;SDS011;11490;42.726;23.268;2022-10-16T07:32:17;8.10;;;5.30;;
22646;SDS011;11490;42.726;23.268;2022-10-16T07:34:43;7.13;;;5.03;;
22646;SDS011;11490;42.726;23.268;2022-10-16T07:37:08;8.82;;;5.85;;
22646;SDS011;11490;42.726;23.268;2022-10-16T07:39:33;7.90;;;5.60;;
22646;SDS011;11490;42.726;23.268;2022-10-16T07:41:59;11.98;;;6.35;;
22646;SDS011;11490;42.726;23.268;2022-10-16T07:44:24;9.20;;;5.63;;
22646;SDS011;11490;42.726;23.268;2022-10-16T07:46:49;18.88;;;6.47;;
22646;SDS011;11490;42.726;23.268;2022-10-16T07:49:24;9.23;;;5.43;;
22646;SDS011;11490;42.726;23.268;2022-10-16T07:51:49;7.30;;;6.03;;
22646;SDS011;11490;42.726;23.268;2022-10-16T07:54:34;7.70;;;5.40;;
22646;SDS011;11490;42.726;23.268;2022-10-16T07:57:11;7.93;;;5.55;;
22646;SDS011;11490;42.726;23.268;2022-10-16T08:06:35;7.68;;;5.07;;
22646;SDS011;11490;42.726;23.268;2022-10-16T08:09:22;7.97;;;5.10;;
22646;SDS011;11490;42.726;23.268;2022-10-16T08:11:47;8.68;;;5.95;;
22646;SDS011;11490;42.726;23.268;2022-10-16T08:14:13;8.32;;;5.60;;
22646;SDS011;11490;42.726;23.268;2022-10-16T08:16:38;6.97;;;5.18;;
22646;SDS011;11490;42.726;23.268;2022-10-16T08:19:03;10.63;;;5.70;;
22646;SDS011;11490;42.726;23.268;2022-10-16T08:21:29;8.35;;;5.18;;
22646;SDS011;11490;42.726;23.268;2022-10-16T08:23:54;8.02;;;5.40;;
22646;SDS011;11490;42.726;23.268;2022-10-16T08:26:20;9.40;;;6.00;;
22646;SDS011;11490;42.726;23.268;2022-10-16T08:28:45;10.23;;;6.00;;
22646;SDS011;11490;42.726;23.268;2022-10-16T08:31:14;9.98;;;6.03;;
22646;SDS011;11490;42.726;23.268;2022-10-16T08:33:41;7.78;;;5.47;;
22646;SDS011;11490;42.726;23.268;2022-10-16T08:36:09;7.47;;;4.95;;
22646;SDS011;11490;42.726;23.268;2022-10-16T08:38:35;5.90;;;4.55;;
22646;SDS011;11490;42.726;23.268;2022-10-16T08:41:24;8.70;;;4.65;;
22646;SDS011;11490;42.726;23.268;2022-10-16T08:47:02;8.90;;;4.78;;
22646;SDS011;11490;42.726;23.268;2022-10-16T08:49:31;4.35;;;3.78;;
22646;SDS011;11490;42.726;23.268;2022-10-16T08:51:57;5.53;;;3.83;;
22646;SDS011;11490;42.726;23.268;2022-10-16T08:56:57;6.40;;;3.50;;
22646;SDS011;11490;42.726;23.268;2022-10-16T08:59:32;5.85;;;3.17;;
22646;SDS011;11490;42.726;23.268;2022-10-16T09:01:57;4.50;;;3.33;;
22646;SDS011;11490;42.726;23.268;2022-10-16T09:13:34;3.83;;;2.50;;
22646;SDS011;11490;42.726;23.268;2022-10-16T09:18:45;5.20;;;3.20;;
22646;SDS011;11490;42.726;23.268;2022-10-16T09:21:18;5.50;;;2.97;;
22646;SDS011;11490;42.726;23.268;2022-10-16T09:23:47;5.55;;;3.22;;
22646;SDS011;11490;42.726;23.268;2022-10-16T09:26:13;5.63;;;3.10;;
22646;SDS011;11490;42.726;23.268;2022-10-16T09:28:41;3.97;;;2.60;;
22646;SDS011;11490;42.726;23.268;2022-10-16T09:31:13;4.20;;;2.85;;
22646;SDS011;11490;42.726;23.268;2022-10-16T09:33:42;5.13;;;2.90;;
22646;SDS011;11490;42.726;23.268;2022-10-16T09:36:10;3.90;;;2.65;;
22646;SDS011;11490;42.726;23.268;2022-10-16T09:38:38;3.83;;;2.60;;
22646;SDS011;11490;42.726;23.268;2022-10-16T09:41:14;4.30;;;2.50;;
22646;SDS011;11490;42.726;23.268;2022-10-16T09:43:53;4.25;;;2.25;;
22646;SDS011;11490;42.726;23.268;2022-10-16T09:46:31;5.45;;;2.72;;
22646;SDS011;11490;42.726;23.268;2022-10-16T09:49:00;3.85;;;2.40;;
22646;SDS011;11490;42.726;23.268;2022-10-16T09:51:34;7.72;;;3.88;;
22646;SDS011;11490;42.726;23.268;2022-10-16T09:54:11;4.93;;;2.90;;
22646;SDS011;11490;42.726;23.268;2022-10-16T09:56:37;5.88;;;3.03;;
22646;SDS011;11490;42.726;23.268;2022-10-16T09:59:11;4.40;;;2.75;;
22646;SDS011;11490;42.726;23.268;2022-10-16T10:04:37;3.55;;;2.63;;
22646;SDS011;11490;42.726;23.268;2022-10-16T10:07:05;4.80;;;2.97;;
22646;SDS011;11490;42.726;23.268;2022-10-16T10:09:42;4.95;;;2.92;;
22646;SDS011;11490;42.726;23.268;2022-10-16T10:15:06;5.80;;;3.20;;
22646;SDS011;11490;42.726;23.268;2022-10-16T10:17:46;6.05;;;2.53;;
22646;SDS011;11490;42.726;23.268;2022-10-16T10:22:49;3.05;;;2.33;;
22646;SDS011;11490;42.726;23.268;2022-10-16T10:25:19;6.05;;;2.80;;
22646;SDS011;11490;42.726;23.268;2022-10-16T10:28:18;4.40;;;2.70;;
22646;SDS011;11490;42.726;23.268;2022-10-16T10:36:20;4.28;;;2.88;;
22646;SDS011;11490;42.726;23.268;2022-10-16T10:39:32;5.78;;;2.97;;
22646;SDS011;11490;42.726;23.268;2022-10-16T10:50:11;3.75;;;2.75;;
22646;SDS011;11490;42.726;23.268;2022-10-16T10:55:31;4.47;;;2.75;;
22646;SDS011;11490;42.726;23.268;2022-10-16T11:03:51;3.40;;;2.35;;
22646;SDS011;11490;42.726;23.268;2022-10-16T11:07:08;3.00;;;2.42;;
22646;SDS011;11490;42.726;23.268;2022-10-16T11:09:34;4.97;;;2.78;;
22646;SDS011;11490;42.726;23.268;2022-10-16T11:14:48;3.45;;;2.33;;
22646;SDS011;11490;42.726;23.268;2022-10-16T11:20:18;3.33;;;2.40;;
22646;SDS011;11490;42.726;23.268;2022-10-16T11:22:54;4.05;;;2.88;;
22646;SDS011;11490;42.726;23.268;2022-10-16T11:25:29;4.63;;;2.85;;
22646;SDS011;11490;42.726;23.268;2022-10-16T11:30:28;6.35;;;3.10;;
22646;SDS011;11490;42.726;23.268;2022-10-16T11:35:43;4.03;;;2.63;;
22646;SDS011;11490;42.726;23.268;2022-10-16T11:38:15;3.95;;;2.65;;
22646;SDS011;11490;42.726;23.268;2022-10-16T11:41:43;4.28;;;2.50;;
22646;SDS011;11490;42.726;23.268;2022-10-16T11:44:06;3.95;;;2.53;;
22646;SDS011;11490;42.726;23.268;2022-10-16T11:46:52;4.72;;;2.75;;
22646;SDS011;11490;42.726;23.268;2022-10-16T11:49:33;3.40;;;2.55;;
22646;SDS011;11490;42.726;23.268;2022-10-16T11:55:14;5.15;;;3.05;;
22646;SDS011;11490;42.726;23.268;2022-10-16T11:57:47;3.70;;;2.22;;
22646;SDS011;11490;42.726;23.268;2022-10-16T12:03:20;4.93;;;2.95;;
22646;SDS011;11490;42.726;23.268;2022-10-16T12:06:05;3.38;;;2.22;;
22646;SDS011;11490;42.726;23.268;2022-10-16T12:08:44;3.60;;;2.50;;
22646;SDS011;11490;42.726;23.268;2022-10-16T12:13:51;4.97;;;3.30;;
22646;SDS011;11490;42.726;23.268;2022-10-16T12:18:45;5.45;;;3.33;;
22646;SDS011;11490;42.726;23.268;2022-10-16T12:21:11;4.35;;;3.28;;
22646;SDS011;11490;42.726;23.268;2022-10-16T12:23:56;5.78;;;3.53;;
22646;SDS011;11490;42.726;23.268;2022-10-16T12:28:51;3.60;;;2.50;;
22646;SDS011;11490;42.726;23.268;2022-10-16T12:31:17;4.13;;;2.25;;
22646;SDS011;11490;42.726;23.268;2022-10-16T12:33:52;4.82;;;2.80;;
22646;SDS011;11490;42.726;23.268;2022-10-16T12:36:34;5.82;;;2.28;;
22646;SDS011;11490;42.726;23.268;2022-10-16T12:39:00;3.38;;;2.15;;
22646;SDS011;11490;42.726;23.268;2022-10-16T12:41:29;3.28;;;2.25;;
22646;SDS011;11490;42.726;23.268;2022-10-16T12:43:57;4.25;;;3.00;;
22646;SDS011;11490;42.726;23.268;2022-10-16T12:46:44;3.50;;;2.70;;
22646;SDS011;11490;42.726;23.268;2022-10-16T12:51:37;7.65;;;2.38;;
22646;SDS011;11490;42.726;23.268;2022-10-16T13:08:17;9.63;;;2.42;;
22646;SDS011;11490;42.726;23.268;2022-10-16T13:10:57;4.82;;;2.92;;
22646;SDS011;11490;42.726;23.268;2022-10-16T13:13:49;4.07;;;2.85;;
22646;SDS011;11490;42.726;23.268;2022-10-16T13:19:22;2.85;;;1.85;;
22646;SDS011;11490;42.726;23.268;2022-10-16T13:22:05;2.85;;;1.90;;
22646;SDS011;11490;42.726;23.268;2022-10-16T13:27:56;3.20;;;1.77;;
22646;SDS011;11490;42.726;23.268;2022-10-16T13:30:27;2.75;;;2.00;;
22646;SDS011;11490;42.726;23.268;2022-10-16T13:35:56;3.03;;;2.17;;
22646;SDS011;11490;42.726;23.268;2022-10-16T13:38:23;3.92;;;2.53;;
22646;SDS011;11490;42.726;23.268;2022-10-16T13:40:51;2.90;;;2.00;;
22646;SDS011;11490;42.726;23.268;2022-10-16T13:46:06;3.10;;;1.98;;
22646;SDS011;11490;42.726;23.268;2022-10-16T13:48:37;2.85;;;1.83;;
22646;SDS011;11490;42.726;23.268;2022-10-16T13:53:29;4.50;;;2.47;;
22646;SDS011;11490;42.726;23.268;2022-10-16T13:55:59;2.80;;;2.10;;
22646;SDS011;11490;42.726;23.268;2022-10-16T13:58:25;3.33;;;1.80;;
22646;SDS011;11490;42.726;23.268;2022-10-16T14:01:04;4.55;;;2.40;;
22646;SDS011;11490;42.726;23.268;2022-10-16T14:03:39;4.05;;;2.47;;
22646;SDS011;11490;42.726;23.268;2022-10-16T14:06:06;4.85;;;2.38;;
22646;SDS011;11490;42.726;23.268;2022-10-16T14:08:40;3.20;;;2.28;;
22646;SDS011;11490;42.726;23.268;2022-10-16T14:11:09;4.90;;;2.40;;
22646;SDS011;11490;42.726;23.268;2022-10-16T14:13:38;2.92;;;2.03;;
22646;SDS011;11490;42.726;23.268;2022-10-16T14:16:15;3.03;;;2.22;;
22646;SDS011;11490;42.726;23.268;2022-10-16T14:18:45;5.20;;;2.28;;
22646;SDS011;11490;42.726;23.268;2022-10-16T14:21:14;2.63;;;2.10;;
22646;SDS011;11490;42.726;23.268;2022-10-16T14:23:41;3.47;;;2.20;;
22646;SDS011;11490;42.726;23.268;2022-10-16T14:28:33;3.17;;;1.60;;
22646;SDS011;11490;42.726;23.268;2022-10-16T14:30:59;4.28;;;2.72;;
22646;SDS011;11490;42.726;23.268;2022-10-16T14:36:03;3.95;;;1.90;;
22646;SDS011;11490;42.726;23.268;2022-10-16T14:38:31;4.65;;;2.55;;
22646;SDS011;11490;42.726;23.268;2022-10-16T14:40:58;3.38;;;2.10;;
22646;SDS011;11490;42.726;23.268;2022-10-16T14:45:58;6.30;;;2.20;;
22646;SDS011;11490;42.726;23.268;2022-10-16T14:48:23;2.75;;;2.08;;
22646;SDS011;11490;42.726;23.268;2022-10-16T14:50:49;3.35;;;2.10;;
22646;SDS011;11490;42.726;23.268;2022-10-16T14:53:15;3.72;;;2.53;;
22646;SDS011;11490;42.726;23.268;2022-10-16T14:55:41;3.10;;;2.10;;
22646;SDS011;11490;42.726;23.268;2022-10-16T14:58:20;4.72;;;2.55;;
22646;SDS011;11490;42.726;23.268;2022-10-16T15:00:48;3.42;;;2.28;;
22646;SDS011;11490;42.726;23.268;2022-10-16T15:03:14;5.20;;;2.85;;
22646;SDS011;11490;42.726;23.268;2022-10-16T15:05:39;3.95;;;2.38;;
22646;SDS011;11490;42.726;23.268;2022-10-16T15:08:05;2.90;;;2.50;;
22646;SDS011;11490;42.726;23.268;2022-10-16T15:10:30;3.38;;;2.25;;
22646;SDS011;11490;42.726;23.268;2022-10-16T15:12:57;4.25;;;2.67;;
22646;SDS011;11490;42.726;23.268;2022-10-16T15:17:52;4.38;;;2.78;;
22646;SDS011;11490;42.726;23.268;2022-10-16T15:20:20;3.53;;;2.63;;
22646;SDS011;11490;42.726;23.268;2022-10-16T15:22:46;8.05;;;3.85;;
22646;SDS011;11490;42.726;23.268;2022-10-16T15:25:25;10.38;;;4.72;;
22646;SDS011;11490;42.726;23.268;2022-10-16T15:27:52;7.07;;;4.10;;
22646;SDS011;11490;42.726;23.268;2022-10-16T15:30:17;13.75;;;7.45;;
22646;SDS011;11490;42.726;23.268;2022-10-16T15:32:42;29.67;;;14.63;;
22646;SDS011;11490;42.726;23.268;2022-10-16T15:35:08;11.02;;;5.93;;
22646;SDS011;11490;42.726;23.268;2022-10-16T15:37:34;13.43;;;5.43;;
22646;SDS011;11490;42.726;23.268;2022-10-16T15:39:59;36.67;;;19.60;;
22646;SDS011;11490;42.726;23.268;2022-10-16T15:42:24;14.77;;;8.23;;
22646;SDS011;11490;42.726;23.268;2022-10-16T15:44:50;15.40;;;8.25;;
22646;SDS011;11490;42.726;23.268;2022-10-16T15:47:15;14.52;;;8.93;;
22646;SDS011;11490;42.726;23.268;2022-10-16T15:49:41;23.88;;;13.55;;
22646;SDS011;11490;42.726;23.268;2022-10-16T15:52:06;20.63;;;11.48;;
22646;SDS011;11490;42.726;23.268;2022-10-16T15:54:31;44.50;;;22.85;;
22646;SDS011;11490;42.726;23.268;2022-10-16T15:56:57;20.00;;;10.05;;
22646;SDS011;11490;42.726;23.268;2022-10-16T15:59:22;28.38;;;14.52;;
22646;SDS011;11490;42.726;23.268;2022-10-16T16:01:47;72.85;;;37.97;;
22646;SDS011;11490;42.726;23.268;2022-10-16T16:04:13;85.07;;;39.03;;
22646;SDS011;11490;42.726;23.268;2022-10-16T16:06:38;57.67;;;30.33;;
22646;SDS011;11490;42.726;23.268;2022-10-16T16:09:09;43.28;;;22.77;;
22646;SDS011;11490;42.726;23.268;2022-10-16T16:11:35;36.17;;;19.13;;
22646;SDS011;11490;42.726;23.268;2022-10-16T16:14:03;23.23;;;14.00;;
22646;SDS011;11490;42.726;23.268;2022-10-16T16:16:29;12.80;;;7.07;;
22646;SDS011;11490;42.726;23.268;2022-10-16T16:18:54;15.77;;;7.28;;
22646;SDS011;11490;42.726;23.268;2022-10-16T16:21:20;8.57;;;4.65;;
22646;SDS011;11490;42.726;23.268;2022-10-16T16:23:45;7.45;;;4.07;;
22646;SDS011;11490;42.726;23.268;2022-10-16T16:26:12;6.97;;;4.45;;
22646;SDS011;11490;42.726;23.268;2022-10-16T16:28:41;8.20;;;5.38;;
22646;SDS011;11490;42.726;23.268;2022-10-16T16:31:07;10.00;;;5.57;;
22646;SDS011;11490;42.726;23.268;2022-10-16T16:33:33;11.13;;;5.35;;
22646;SDS011;11490;42.726;23.268;2022-10-16T16:35:59;9.30;;;5.82;;
22646;SDS011;11490;42.726;23.268;2022-10-16T16:38:26;18.85;;;9.63;;
22646;SDS011;11490;42.726;23.268;2022-10-16T16:40:52;25.17;;;15.52;;
22646;SDS011;11490;42.726;23.268;2022-10-16T16:43:19;21.85;;;10.25;;
22646;SDS011;11490;42.726;23.268;2022-10-16T16:45:47;35.08;;;18.23;;
22646;SDS011;11490;42.726;23.268;2022-10-16T16:48:12;33.67;;;17.85;;
22646;SDS011;11490;42.726;23.268;2022-10-16T16:50:38;32.83;;;17.10;;
22646;SDS011;11490;42.726;23.268;2022-10-16T16:53:03;32.45;;;17.50;;
22646;SDS011;11490;42.726;23.268;2022-10-16T16:55:28;16.63;;;10.80;;
22646;SDS011;11490;42.726;23.268;2022-10-16T16:57:54;20.33;;;9.95;;
22646;SDS011;11490;42.726;23.268;2022-10-16T17:00:19;19.05;;;10.95;;
22646;SDS011;11490;42.726;23.268;2022-10-16T17:02:47;13.05;;;8.57;;
22646;SDS011;11490;42.726;23.268;2022-10-16T17:05:13;24.17;;;13.13;;